Time;durP1;ratioP1;P1;durP2;ratioP2;P2;SDS_P1;SDS_P2;PMS_P1;PMS_P2;Temp;Humidity;BMP_temperature;BMP_pressure;BME280_temperature;BME280_humidity;BME280_pressure;Samples;Min_cycle;Max_cycle;Signal;HPM_P1;HPM_P2
2021/12/31 00:00:49;;;;;;;;;55.00;43.25;;;;;8.31;75.02;100162.09;5032510;28;8860;-76
2021/12/31 00:03:18;;;;;;;;;61.50;47.75;;;;;8.27;75.24;100167.22;5054800;28;9619;-78
2021/12/31 00:05:47;;;;;;;;;55.25;46.00;;;;;8.25;74.84;100169.81;5068902;28;8884;-77
2021/12/31 00:08:15;;;;;;;;;57.25;46.25;;;;;8.31;75.05;100164.72;5051455;28;8907;-76
2021/12/31 00:10:45;;;;;;;;;59.50;48.75;;;;;8.33;74.69;100162.16;5052152;28;8854;-78
2021/12/31 00:13:13;;;;;;;;;56.75;48.00;;;;;8.45;75.05;100170.22;5001377;28;8866;-76
2021/12/31 00:15:43;;;;;;;;;57.75;47.25;;;;;8.53;74.64;100163.41;5067371;28;8858;-76
2021/12/31 00:18:12;;;;;;;;;65.75;52.00;;;;;8.63;74.46;100172.25;5068528;28;8973;-77
2021/12/31 00:20:41;;;;;;;;;65.75;50.75;;;;;8.69;73.55;100171.47;5052395;28;8870;-76
2021/12/31 00:23:12;;;;;;;;;58.50;50.50;;;;;8.74;73.07;100180.25;5014677;28;8990;-75
2021/12/31 00:25:44;;;;;;;;;68.50;54.25;;;;;8.83;73.50;100174.31;5048088;28;8887;-78
2021/12/31 00:28:13;;;;;;;;;54.50;43.75;;;;;8.82;73.92;100178.63;5047961;28;8946;-77
2021/12/31 00:30:43;;;;;;;;;51.75;44.00;;;;;8.85;73.74;100165.69;5048207;28;9022;-76
2021/12/31 00:33:12;;;;;;;;;53.50;42.75;;;;;8.90;72.52;100165.75;5047818;28;9028;-77
2021/12/31 00:35:40;;;;;;;;;43.75;40.00;;;;;8.79;73.35;100168.19;5047741;28;8872;-78
2021/12/31 00:38:09;;;;;;;;;44.00;39.25;;;;;8.78;72.92;100162.09;5048140;28;8999;-79
2021/12/31 00:40:38;;;;;;;;;46.50;40.50;;;;;8.62;74.97;100164.41;4998100;28;8841;-75
2021/12/31 00:43:10;;;;;;;;;42.75;39.75;;;;;8.59;74.84;100154.84;5048007;28;8876;-76
2021/12/31 00:45:41;;;;;;;;;45.00;39.50;;;;;8.66;74.70;100153.22;5047821;28;8986;-74
2021/12/31 00:48:13;;;;;;;;;50.50;39.75;;;;;8.74;73.80;100149.03;5054379;28;8866;-75
2021/12/31 00:50:43;;;;;;;;;37.00;32.25;;;;;8.72;73.56;100153.34;5067051;28;8885;-75
2021/12/31 00:53:11;;;;;;;;;47.25;42.25;;;;;8.65;73.61;100147.16;5031188;28;8849;-76
2021/12/31 00:55:40;;;;;;;;;37.50;35.50;;;;;8.55;74.43;100155.66;4999844;28;8987;-76
2021/12/31 00:58:09;;;;;;;;;37.00;35.00;;;;;8.43;75.04;100158.91;5000598;28;8847;-76
2021/12/31 01:00:37;;;;;;;;;33.60;31.20;;;;;8.39;75.14;100155.34;5026054;28;8941;-76
2021/12/31 01:03:07;;;;;;;;;38.00;35.80;;;;;8.35;75.87;100153.50;5026308;28;8876;-75
2021/12/31 01:05:37;;;;;;;;;38.50;35.25;;;;;8.37;75.79;100149.25;5009146;28;9618;-75
2021/12/31 01:08:06;;;;;;;;;39.40;37.20;;;;;8.55;75.11;100148.72;5026145;28;8853;-76
2021/12/31 01:10:34;;;;;;;;;38.20;33.20;;;;;8.63;75.28;100143.66;5025803;28;8852;-74
2021/12/31 01:13:08;;;;;;;;;40.50;38.75;;;;;8.71;74.52;100143.78;4993280;28;8855;-75
2021/12/31 01:15:41;;;;;;;;;41.60;37.40;;;;;8.78;73.89;100141.31;4992883;28;8840;-76
2021/12/31 01:18:27;;;;;;;;;43.50;38.25;;;;;8.80;73.54;100137.88;5009723;28;9713;-76
2021/12/31 01:20:56;;;;;;;;;36.80;31.00;;;;;8.90;73.71;100134.53;5009793;28;8856;-76
2021/12/31 01:23:25;;;;;;;;;32.40;31.00;;;;;8.95;73.76;100127.69;4993193;28;9714;-76
2021/12/31 01:25:54;;;;;;;;;34.40;31.60;;;;;9.09;72.97;100125.28;4976959;28;9609;-76
2021/12/31 01:28:23;;;;;;;;;34.80;31.00;;;;;9.18;72.92;100120.22;5045602;28;8867;-75
2021/12/31 01:30:52;;;;;;;;;39.75;34.75;;;;;9.36;72.80;100120.50;5029296;28;8838;-77
2021/12/31 01:33:20;;;;;;;;;43.50;35.75;;;;;9.39;71.06;100119.66;5028483;28;8874;-77
2021/12/31 01:35:49;;;;;;;;;43.00;39.50;;;;;9.53;71.67;100130.25;5028737;28;8972;-77
2021/12/31 01:38:20;;;;;;;;;40.75;37.75;;;;;9.63;70.52;100124.31;5045311;28;8836;-76
2021/12/31 01:40:49;;;;;;;;;38.00;35.50;;;;;9.64;71.11;100122.56;5049056;28;8848;-77
2021/12/31 01:43:18;;;;;;;;;40.75;38.50;;;;;9.68;70.73;100127.00;5048448;28;8844;-77
2021/12/31 01:45:54;;;;;;;;;42.00;36.50;;;;;9.66;70.08;100123.47;5015989;28;9042;-77
2021/12/31 01:48:25;;;;;;;;;37.60;35.60;;;;;9.37;70.30;100116.16;5065340;28;8983;-75
2021/12/31 01:50:55;;;;;;;;;47.00;38.25;;;;;9.28;70.53;100122.13;5065366;28;8840;-78
2021/12/31 01:53:26;;;;;;;;;43.00;40.60;;;;;9.28;71.67;100124.72;5065345;28;8840;-78
2021/12/31 01:55:58;;;;;;;;;36.20;34.20;;;;;9.21;72.27;100127.22;5048564;28;8840;-76
2021/12/31 01:58:28;;;;;;;;;40.20;37.00;;;;;9.11;71.88;100123.59;5065692;28;8958;-76
2021/12/31 02:01:03;;;;;;;;;43.60;40.00;;;;;9.17;71.88;100121.09;5067769;28;8858;-76
2021/12/31 02:03:35;;;;;;;;;36.00;32.40;;;;;9.31;71.48;100116.94;5051974;28;8841;-74
2021/12/31 02:06:05;;;;;;;;;37.60;33.80;;;;;9.21;71.27;100115.09;5069451;28;8837;-75
2021/12/31 02:08:35;;;;;;;;;20.40;15.00;;;;;9.21;72.39;100116.81;5069982;28;8829;-75
2021/12/31 02:11:03;;;;;;;;;28.00;24.00;;;;;9.20;71.83;100112.44;5069596;28;8854;-76
2021/12/31 02:13:32;;;;;;;;;26.60;26.20;;;;;9.28;71.93;100110.81;5088044;28;8850;-77
2021/12/31 02:16:01;;;;;;;;;32.40;29.80;;;;;9.29;72.01;100121.25;5076118;28;8851;-75
2021/12/31 02:18:30;;;;;;;;;34.00;28.00;;;;;9.48;71.03;100114.56;5049800;28;8890;-74
2021/12/31 02:21:03;;;;;;;;;28.00;25.20;;;;;9.60;70.80;100108.63;5033197;28;8870;-75
2021/12/31 02:23:39;;;;;;;;;31.80;30.00;;;;;9.61;70.67;100106.94;5049846;28;8866;-75
2021/12/31 02:26:10;;;;;;;;;26.60;22.60;;;;;9.79;70.32;100108.88;5048777;28;8885;-75
2021/12/31 02:28:39;;;;;;;;;27.40;27.20;;;;;9.83;69.33;100108.94;5049961;28;8855;-76
2021/12/31 02:31:08;;;;;;;;;27.20;24.00;;;;;9.84;68.83;100105.47;5049935;28;8905;-76
2021/12/31 02:33:37;;;;;;;;;28.40;26.00;;;;;9.88;68.77;100099.41;5032357;28;8860;-76
2021/12/31 02:36:08;;;;;;;;;38.00;34.40;;;;;9.94;68.66;100106.44;5033018;28;8878;-75
2021/12/31 02:38:37;;;;;;;;;28.20;25.40;;;;;10.06;69.08;100108.31;5049666;28;8856;-76
2021/12/31 02:41:05;;;;;;;;;27.40;27.40;;;;;10.14;68.99;100102.31;4992504;28;8883;-75
2021/12/31 02:43:34;;;;;;;;;31.80;27.40;;;;;10.16;68.34;100094.50;5008523;28;8979;-75
2021/12/31 02:46:03;;;;;;;;;33.40;28.80;;;;;10.15;67.71;100088.44;4994120;28;8995;-75
2021/12/31 02:48:32;;;;;;;;;26.40;25.20;;;;;10.10;67.65;100090.13;4994290;28;9595;-77
2021/12/31 02:51:03;;;;;;;;;32.00;27.80;;;;;9.98;68.61;100091.72;4954105;28;8876;-75
2021/12/31 02:53:38;;;;;;;;;34.20;33.00;;;;;10.07;68.45;100100.50;4973327;28;8894;-74
2021/12/31 02:56:09;;;;;;;;;33.00;32.00;;;;;10.10;68.33;100108.34;4973195;28;8888;-75
2021/12/31 02:58:39;;;;;;;;;29.60;28.80;;;;;10.18;68.33;100112.78;4997500;28;8928;-75
2021/12/31 03:01:09;;;;;;;;;32.60;28.20;;;;;10.33;68.11;100107.75;4973450;28;8849;-75
2021/12/31 03:03:38;;;;;;;;;32.00;28.80;;;;;10.42;67.61;100106.97;4971904;28;9023;-76
2021/12/31 03:06:09;;;;;;;;;35.40;31.00;;;;;10.50;67.56;100107.91;4988838;28;8947;-74
2021/12/31 03:08:45;;;;;;;;;39.60;30.40;;;;;10.60;67.64;100109.72;4948217;28;13343;-75
2021/12/31 03:11:18;;;;;;;;;38.80;35.80;;;;;10.66;67.02;100112.41;4990424;28;8935;-76
2021/12/31 03:13:51;;;;;;;;;37.40;35.20;;;;;10.72;67.39;100103.75;5020884;28;9612;-76
2021/12/31 03:16:22;;;;;;;;;33.20;32.00;;;;;10.76;66.59;100108.13;5027831;28;8880;-76
2021/12/31 03:18:52;;;;;;;;;30.80;28.60;;;;;10.79;66.11;100095.06;5033580;28;8875;-75
2021/12/31 03:21:23;;;;;;;;;30.40;25.40;;;;;10.81;65.81;100096.00;5070528;28;8844;-76
2021/12/31 03:23:55;;;;;;;;;30.80;29.80;;;;;10.70;65.50;100087.22;5052920;28;8856;-77
2021/12/31 03:26:23;;;;;;;;;28.20;26.60;;;;;10.50;65.79;100085.28;5036384;28;8876;-76
2021/12/31 03:28:53;;;;;;;;;29.20;25.20;;;;;10.30;66.26;100082.53;5052988;28;8882;-75
2021/12/31 03:31:21;;;;;;;;;32.20;30.60;;;;;10.26;66.11;100074.63;5030912;28;8854;-76
2021/12/31 03:33:50;;;;;;;;;31.00;26.20;;;;;10.14;66.90;100088.41;5046539;28;8846;-74
2021/12/31 03:36:19;;;;;;;;;30.60;27.80;;;;;10.07;67.37;100086.59;4998716;28;8978;-77
2021/12/31 03:38:47;;;;;;;;;32.00;29.20;;;;;10.20;67.25;100095.41;5047659;28;8858;-76
2021/12/31 03:41:17;;;;;;;;;19.00;17.00;;;;;10.27;66.73;100085.06;5048056;28;8860;-78
2021/12/31 03:43:46;;;;;;;;;33.40;29.00;;;;;10.35;66.94;100090.38;5047767;28;8854;-77
2021/12/31 03:46:15;;;;;;;;;27.80;24.20;;;;;10.42;66.58;100075.69;4991307;28;9040;-75
2021/12/31 03:48:44;;;;;;;;;24.20;23.40;;;;;10.32;66.18;100069.47;4944252;28;9602;-77
2021/12/31 03:51:12;;;;;;;;;29.00;24.40;;;;;10.32;65.97;100072.09;5010792;28;8961;-75
2021/12/31 03:53:41;;;;;;;;;34.20;31.80;;;;;10.18;65.84;100068.47;5027583;28;8871;-77
2021/12/31 03:56:10;;;;;;;;;27.80;27.60;;;;;10.15;65.83;100066.69;4994050;28;8856;-76
2021/12/31 03:58:40;;;;;;;;;30.00;29.60;;;;;10.25;65.63;100063.31;5011268;28;8942;-76
2021/12/31 04:01:10;;;;;;;;;34.00;30.60;;;;;10.30;66.74;100079.94;5027146;28;8856;-76
2021/12/31 04:03:39;;;;;;;;;33.20;28.80;;;;;10.36;66.22;100084.31;4994427;28;8922;-75
2021/12/31 04:06:07;;;;;;;;;31.60;26.40;;;;;10.44;66.58;100079.16;5027163;28;8868;-76
2021/12/31 04:08:36;;;;;;;;;26.80;25.60;;;;;10.50;65.57;100084.44;5016956;28;8846;-76
2021/12/31 04:11:05;;;;;;;;;23.00;21.00;;;;;10.58;65.77;100084.50;5030263;28;8857;-76
2021/12/31 04:13:33;;;;;;;;;28.60;25.60;;;;;10.66;65.19;100072.38;5030675;28;8830;-78
2021/12/31 04:16:04;;;;;;;;;23.80;22.20;;;;;10.74;65.04;100078.53;5039649;28;9003;-76
2021/12/31 04:18:33;;;;;;;;;33.00;29.00;;;;;10.58;63.85;100074.94;5033790;28;9678;-77
2021/12/31 04:21:01;;;;;;;;;23.60;20.80;;;;;10.46;64.19;100082.66;5050124;28;9574;-76
2021/12/31 04:23:33;;;;;;;;;32.00;30.00;;;;;10.44;64.29;100072.22;5061862;28;8865;-76
2021/12/31 04:26:02;;;;;;;;;34.00;30.60;;;;;10.42;64.65;100068.72;5089415;28;9606;-75
2021/12/31 04:28:30;;;;;;;;;33.60;32.60;;;;;10.14;65.07;100081.47;5055038;28;8853;-75
2021/12/31 04:30:59;;;;;;;;;32.60;28.00;;;;;10.06;65.78;100085.72;5054483;28;8838;-76
2021/12/31 04:33:29;;;;;;;;;31.80;26.60;;;;;10.29;65.76;100088.56;5071728;28;9049;-75
2021/12/31 04:35:58;;;;;;;;;28.20;26.40;;;;;10.42;64.77;100088.72;5069256;28;8828;-75
2021/12/31 04:38:27;;;;;;;;;32.60;30.60;;;;;10.44;64.77;100084.38;5051532;28;8929;-75
2021/12/31 04:40:56;;;;;;;;;31.40;27.80;;;;;10.38;64.68;100079.09;5066382;28;8848;-75
2021/12/31 04:43:24;;;;;;;;;30.80;27.00;;;;;10.35;64.76;100074.75;4961904;28;8856;-76
2021/12/31 04:45:53;;;;;;;;;33.40;30.40;;;;;10.46;64.99;100073.09;5009621;28;8876;-75
2021/12/31 04:48:22;;;;;;;;;31.20;25.40;;;;;10.54;63.89;100074.03;4977755;28;8845;-77
2021/12/31 04:50:52;;;;;;;;;36.40;32.80;;;;;10.67;64.08;100066.31;5010518;28;8869;-75
2021/12/31 04:53:21;;;;;;;;;33.00;31.60;;;;;10.58;63.75;100059.28;5026842;28;8884;-75
2021/12/31 04:55:50;;;;;;;;;31.80;31.80;;;;;10.59;63.61;100054.97;5009957;28;8849;-77
2021/12/31 04:58:19;;;;;;;;;40.40;33.80;;;;;10.62;63.32;100055.81;5010526;28;8927;-74
2021/12/31 05:00:48;;;;;;;;;24.60;24.40;;;;;10.58;63.16;100066.25;4977429;28;8845;-77
2021/12/31 05:03:16;;;;;;;;;96.00;83.00;;;;;10.64;63.89;100069.78;5026208;28;8865;-75
2021/12/31 05:05:47;;;;;;;;;39.75;36.50;;;;;10.49;63.36;100075.75;4995572;28;10280;-76
2021/12/31 05:08:19;;;;;;;;;51.00;43.00;;;;;10.56;62.96;100079.25;5025264;28;8887;-77
2021/12/31 05:10:47;;;;;;;;;34.60;30.00;;;;;10.60;62.78;100085.38;4993867;28;8910;-75
2021/12/31 05:13:18;;;;;;;;;35.40;32.00;;;;;10.67;63.15;100092.38;5026813;28;8868;-78
2021/12/31 05:15:50;;;;;;;;;38.50;37.75;;;;;10.79;63.04;100102.03;5028936;28;8869;-76
2021/12/31 05:18:19;;;;;;;;;43.25;38.50;;;;;10.88;63.26;100110.81;5014409;28;8845;-78
2021/12/31 05:20:52;;;;;;;;;46.50;36.00;;;;;10.97;62.91;100114.38;5020928;28;9010;-75
2021/12/31 05:23:22;;;;;;;;;32.20;29.60;;;;;10.99;62.14;100110.03;5027811;28;8879;-75
2021/12/31 05:25:51;;;;;;;;;38.40;35.60;;;;;11.08;62.28;100110.94;4981941;28;8875;-75
2021/12/31 05:28:20;;;;;;;;;31.75;30.25;;;;;11.12;62.70;100109.25;5032308;28;8864;-76
2021/12/31 05:30:49;;;;;;;;;32.20;29.60;;;;;11.16;61.88;100105.78;5032931;28;8881;-75
2021/12/31 05:33:17;;;;;;;;;27.80;27.00;;;;;11.15;61.27;100104.00;4959292;28;9721;-76
2021/12/31 05:35:46;;;;;;;;;30.60;27.60;;;;;11.11;61.92;100097.94;5033912;28;8872;-76
2021/12/31 05:38:15;;;;;;;;;33.60;28.60;;;;;11.14;61.65;100098.81;5029863;28;8860;-76
2021/12/31 05:40:45;;;;;;;;;31.60;30.60;;;;;11.08;61.36;100097.91;5071761;28;8845;-77
2021/12/31 05:43:13;;;;;;;;;116.25;102.50;;;;;11.14;62.30;100104.91;5054730;28;8854;-75
2021/12/31 05:45:42;;;;;;;;;65.50;52.00;;;;;11.16;61.71;100099.69;5089944;28;11541;-75
2021/12/31 05:48:24;;;;;;;;;35.25;33.75;;;;;11.19;62.05;100099.69;5049999;28;8844;-76
2021/12/31 05:50:53;;;;;;;;;32.60;32.40;;;;;11.20;61.40;100094.50;5065911;28;8836;-75
2021/12/31 05:53:21;;;;;;;;;25.60;23.20;;;;;11.19;61.06;100095.38;5048973;28;8852;-74
2021/12/31 05:55:51;;;;;;;;;35.00;33.00;;;;;11.16;61.24;100095.34;5045281;28;8878;-76
2021/12/31 05:58:20;;;;;;;;;70.00;54.50;;;;;11.20;61.94;100099.72;5045292;28;8857;-76
2021/12/31 06:00:49;;;;;;;;;118.50;104.25;;;;;11.24;61.61;100090.16;5011310;28;8878;-75
2021/12/31 06:03:17;;;;;;;;;61.00;47.33;;;;;11.20;61.52;100104.94;5026950;28;10683;-76
2021/12/31 06:05:47;;;;;;;;;128.50;113.75;;;;;11.26;61.85;100098.88;5016515;28;8899;-78
2021/12/31 06:08:15;;;;;;;;;136.00;123.50;;;;;11.25;62.01;100098.00;5023941;28;11132;-74
2021/12/31 06:10:44;;;;;;;;;82.67;66.33;;;;;11.24;61.80;100104.06;5043907;28;11688;-76
2021/12/31 06:13:14;;;;;;;;;82.67;61.67;;;;;11.31;61.76;100113.69;5010488;28;8970;-76
2021/12/31 06:15:44;;;;;;;;;94.00;80.75;;;;;11.38;62.43;100114.63;4979311;28;9196;-77
2021/12/31 06:18:13;;;;;;;;;44.00;36.00;;;;;11.38;61.34;100117.22;5043513;28;10279;-76
2021/12/31 06:20:42;;;;;;;;;78.75;60.25;;;;;11.43;61.55;100105.03;4997743;28;8963;-77
2021/12/31 06:23:11;;;;;;;;;47.00;39.25;;;;;11.45;61.15;100097.22;5034553;28;8886;-75
2021/12/31 06:25:39;;;;;;;;;55.50;45.00;;;;;11.29;60.85;100098.91;5028112;28;9021;-74
2021/12/31 06:28:08;;;;;;;;;44.00;37.75;;;;;11.35;61.21;100111.97;5016176;28;9019;-73
2021/12/31 06:30:38;;;;;;;;;40.25;35.25;;;;;11.39;61.33;100111.13;5061473;28;8875;-74
2021/12/31 06:33:07;;;;;;;;;32.75;29.00;;;;;11.43;61.88;100117.25;5055054;28;8868;-75
2021/12/31 06:35:36;;;;;;;;;29.60;28.20;;;;;11.44;60.32;100114.63;5018605;28;8868;-75
2021/12/31 06:38:06;;;;;;;;;37.00;34.50;;;;;11.51;61.08;100108.59;5072724;28;8929;-76
2021/12/31 06:40:36;;;;;;;;;40.40;33.00;;;;;11.50;60.75;100117.28;5055999;28;8860;-73
2021/12/31 06:43:04;;;;;;;;;35.00;32.75;;;;;11.58;61.34;100121.66;5053867;28;9775;-70
2021/12/31 06:45:33;;;;;;;;;31.40;29.80;;;;;11.64;61.35;100113.84;5049692;28;8844;-70
2021/12/31 06:48:04;;;;;;;;;33.80;32.00;;;;;11.73;61.05;100121.72;5077694;28;8994;-71
2021/12/31 06:50:33;;;;;;;;;28.80;24.20;;;;;11.80;61.06;100128.72;5069538;28;8891;-72
2021/12/31 06:53:02;;;;;;;;;38.50;33.75;;;;;11.85;60.68;100121.78;5069825;28;8878;-71
2021/12/31 06:55:32;;;;;;;;;37.80;33.60;;;;;11.88;59.51;100115.69;5036471;28;8856;-70
2021/12/31 06:58:01;;;;;;;;;42.25;37.25;;;;;11.90;59.67;100121.81;5069613;28;8915;-74
2021/12/31 07:00:29;;;;;;;;;51.50;42.25;;;;;11.93;60.03;100121.84;5060248;28;8862;-76
2021/12/31 07:03:08;;;;;;;;;62.25;52.25;;;;;11.94;59.27;100126.19;5053986;28;8841;-76
2021/12/31 07:05:37;;;;;;;;;67.00;53.25;;;;;11.87;59.63;100140.06;5049196;28;8909;-76
2021/12/31 07:08:05;;;;;;;;;60.50;48.75;;;;;11.92;59.67;100134.91;5043318;28;8896;-76
2021/12/31 07:10:34;;;;;;;;;68.00;53.25;;;;;11.94;59.56;100134.03;5032279;28;8840;-79
2021/12/31 07:13:10;;;;;;;;;56.50;47.00;;;;;11.98;59.40;100132.31;5048809;28;8872;-75
2021/12/31 07:15:41;;;;;;;;;74.00;58.25;;;;;12.04;59.41;100141.06;5067715;28;8966;-75
2021/12/31 07:18:11;;;;;;;;;75.00;60.00;;;;;12.05;59.37;100137.56;5069626;28;8866;-74
2021/12/31 07:20:40;;;;;;;;;75.25;60.75;;;;;12.04;58.90;100132.31;5034393;28;8922;-74
2021/12/31 07:23:12;;;;;;;;;72.75;56.00;;;;;11.95;59.24;100130.56;5081482;28;8896;-74
2021/12/31 07:25:42;;;;;;;;;76.00;61.50;;;;;12.05;59.93;100128.84;5071160;28;9160;-74
2021/12/31 07:28:13;;;;;;;;;75.25;59.00;;;;;12.11;59.14;100136.69;5090124;28;8901;-75
2021/12/31 07:30:43;;;;;;;;;74.00;59.50;;;;;12.16;59.77;100131.50;5069287;28;8857;-76
2021/12/31 07:33:17;;;;;;;;;73.75;58.50;;;;;12.23;59.60;100141.06;5051856;28;8839;-77
2021/12/31 07:35:46;;;;;;;;;64.75;53.00;;;;;12.25;59.24;100145.47;5070074;28;8863;-76
2021/12/31 07:38:20;;;;;;;;;53.50;42.00;;;;;12.30;59.71;100150.69;5051941;28;8890;-76
2021/12/31 07:40:51;;;;;;;;;15.00;7.50;;;;;12.11;59.36;100149.78;5052205;28;8856;-77
2021/12/31 07:43:21;;;;;;;;;51.75;43.00;;;;;12.23;58.70;100147.19;5051827;28;8844;-74
2021/12/31 07:45:52;;;;;;;;;45.75;39.25;;;;;12.31;59.21;100142.00;5052023;28;8855;-75
2021/12/31 07:48:23;;;;;;;;;47.75;39.25;;;;;12.38;59.31;100138.53;5051963;28;8884;-77
2021/12/31 07:50:54;;;;;;;;;53.00;39.50;;;;;12.39;59.38;100142.00;5055860;28;8825;-78
2021/12/31 07:53:23;;;;;;;;;44.50;40.75;;;;;12.44;58.96;100141.13;5055818;28;9715;-78
2021/12/31 07:55:51;;;;;;;;;52.25;41.50;;;;;12.43;59.75;100130.66;5068708;28;9613;-80
2021/12/31 07:58:20;;;;;;;;;49.75;41.50;;;;;12.46;59.28;100128.94;5054277;28;8864;-79
2021/12/31 08:00:49;;;;;;;;;60.25;45.75;;;;;12.48;59.17;100139.41;5052780;28;8882;-78
2021/12/31 08:03:18;;;;;;;;;53.50;43.00;;;;;12.50;58.88;100137.66;5052547;28;9585;-77
2021/12/31 08:05:48;;;;;;;;;57.25;47.50;;;;;12.45;58.59;100149.84;5052672;28;8848;-78
2021/12/31 08:08:17;;;;;;;;;57.25;45.25;;;;;12.52;59.33;100150.75;5052841;28;8864;-78
2021/12/31 08:10:45;;;;;;;;;46.50;38.25;;;;;12.53;59.15;100155.09;5044986;28;8849;-79
2021/12/31 08:13:25;;;;;;;;;47.75;40.50;;;;;12.44;58.04;100159.44;5073828;28;8844;-78
2021/12/31 08:15:53;;;;;;;;;49.50;43.25;;;;;12.54;60.01;100160.34;5049823;28;8874;-82
2021/12/31 08:18:23;;;;;;;;;51.50;42.50;;;;;12.59;58.50;100161.22;5051909;28;8959;-79
2021/12/31 08:20:53;;;;;;;;;56.75;47.50;;;;;12.72;59.86;100159.50;5069166;28;8871;-78
2021/12/31 08:23:23;;;;;;;;;53.75;45.25;;;;;12.87;59.34;100161.22;5052557;28;8844;-80
2021/12/31 08:25:52;;;;;;;;;57.25;46.25;;;;;13.01;58.45;100169.94;5052301;28;8832;-79
2021/12/31 08:28:21;;;;;;;;;55.75;45.75;;;;;13.13;60.20;100168.19;5035590;28;8952;-79
2021/12/31 08:30:50;;;;;;;;;53.50;41.25;;;;;13.25;57.95;100166.44;5069507;28;8861;-79
2021/12/31 08:33:19;;;;;;;;;55.00;44.50;;;;;13.36;58.72;100176.91;5052726;28;8866;-79
2021/12/31 08:35:47;;;;;;;;;48.25;39.50;;;;;13.48;58.12;100169.91;5036377;28;9577;-80
2021/12/31 08:38:17;;;;;;;;;51.75;44.00;;;;;13.56;57.10;100176.00;5052792;28;8962;-80
2021/12/31 08:40:46;;;;;;;;;49.25;42.00;;;;;13.63;57.10;100180.38;5053192;28;8836;-79
2021/12/31 08:43:15;;;;;;;;;53.75;45.00;;;;;13.73;56.86;100189.06;5052460;28;8986;-82
2021/12/31 08:45:44;;;;;;;;;52.50;41.25;;;;;13.65;55.54;100189.09;4994809;28;8895;-78
2021/12/31 08:48:13;;;;;;;;;54.50;45.00;;;;;13.54;55.94;100191.75;4994830;28;8961;-80
2021/12/31 08:50:42;;;;;;;;;54.25;44.50;;;;;13.64;55.28;100195.19;4994905;28;8868;-80
2021/12/31 08:53:11;;;;;;;;;54.50;44.50;;;;;13.60;55.56;100194.34;4994745;28;8869;-81
2021/12/31 08:55:42;;;;;;;;;49.00;41.25;;;;;13.65;55.69;100199.59;5027320;28;8840;-80
2021/12/31 08:58:10;;;;;;;;;58.00;48.00;;;;;13.72;56.38;100200.41;5010531;28;8880;-79
2021/12/31 09:00:39;;;;;;;;;54.50;46.00;;;;;13.81;57.29;100203.88;4994662;28;8962;-78
2021/12/31 09:03:08;;;;;;;;;57.00;47.00;;;;;13.91;56.56;100204.72;5010806;28;8836;-83
2021/12/31 09:05:37;;;;;;;;;55.75;44.50;;;;;14.01;56.56;100206.44;5010660;28;8848;-78
2021/12/31 09:08:05;;;;;;;;;56.00;46.25;;;;;14.06;55.80;100206.41;4993630;28;8880;-79
2021/12/31 09:10:35;;;;;;;;;52.50;43.00;;;;;14.14;56.97;100206.38;5010066;28;8883;-79
2021/12/31 09:13:05;;;;;;;;;61.25;48.75;;;;;14.23;56.23;100206.34;5010106;28;8955;-80
2021/12/31 09:15:34;;;;;;;;;54.25;45.00;;;;;14.31;55.35;100198.44;5009865;28;9672;-79
2021/12/31 09:18:03;;;;;;;;;63.25;51.00;;;;;14.40;56.00;100194.03;5049334;28;8864;-81
2021/12/31 09:20:32;;;;;;;;;59.75;48.25;;;;;14.52;54.94;100200.09;5034311;28;8844;-80
2021/12/31 09:23:02;;;;;;;;;60.75;50.00;;;;;14.47;54.30;100209.72;5050957;28;8840;-81
2021/12/31 09:25:33;;;;;;;;;56.00;47.25;;;;;14.42;54.19;100210.63;5067241;28;8851;-79
2021/12/31 09:28:02;;;;;;;;;55.75;44.75;;;;;14.46;54.80;100203.63;5017328;28;8860;-79
2021/12/31 09:30:32;;;;;;;;;56.25;45.75;;;;;14.58;55.25;100198.31;5067612;28;8880;-80
2021/12/31 09:33:01;;;;;;;;;62.00;50.00;;;;;14.60;53.58;100204.41;5051237;28;8860;-81
2021/12/31 09:35:31;;;;;;;;;57.75;47.50;;;;;14.70;54.21;100207.00;5067755;28;8859;-81
2021/12/31 09:38:02;;;;;;;;;45.00;37.25;;;;;14.03;52.33;100209.06;5050961;28;8879;-79
2021/12/31 09:40:31;;;;;;;;;53.75;42.75;;;;;13.54;54.29;100209.22;5034284;28;8964;-81
2021/12/31 09:43:07;;;;;;;;;41.80;34.20;;;;;13.02;55.78;100205.75;5067321;28;8890;-79
2021/12/31 09:45:38;;;;;;;;;34.00;29.00;;;;;13.32;55.40;100201.38;5050893;28;8855;-80
2021/12/31 09:48:08;;;;;;;;;33.60;30.00;;;;;13.60;55.49;100196.97;5051077;28;8953;-80
2021/12/31 09:50:41;;;;;;;;;31.40;28.80;;;;;13.75;53.45;100203.03;5034453;28;8851;-79
2021/12/31 09:53:12;;;;;;;;;37.80;34.20;;;;;13.98;54.15;100198.59;5017708;28;8840;-82
2021/12/31 09:55:44;;;;;;;;;29.00;29.00;;;;;13.98;52.87;100200.34;5033687;28;8868;-81
2021/12/31 09:58:15;;;;;;;;;35.20;31.80;;;;;13.52;54.08;100195.25;5051000;28;8872;-77
2021/12/31 10:00:47;;;;;;;;;38.00;34.00;;;;;13.53;55.06;100194.34;5068929;28;8876;-77
2021/12/31 10:03:19;;;;;;;;;33.60;31.20;;;;;13.06;55.64;100198.72;5034422;28;8843;-79
2021/12/31 10:05:51;;;;;;;;;33.00;32.00;;;;;13.45;56.45;100195.22;5050437;28;8855;-80
2021/12/31 10:08:21;;;;;;;;;40.60;37.00;;;;;13.82;56.43;100205.63;5066767;28;8914;-82
2021/12/31 10:11:05;;;;;;;;;46.25;39.75;;;;;14.23;55.06;100208.97;5050023;28;8844;-78
2021/12/31 10:13:34;;;;;;;;;45.50;39.75;;;;;14.36;54.52;100202.78;5050513;28;8937;-82
2021/12/31 10:16:06;;;;;;;;;43.20;38.00;;;;;14.27;52.81;100200.19;5066870;28;8836;-79
2021/12/31 10:18:37;;;;;;;;;45.50;37.75;;;;;14.36;53.50;100196.66;5068699;28;8891;-79
2021/12/31 10:21:06;;;;;;;;;48.50;39.25;;;;;14.51;53.73;100199.19;5050717;28;8870;-81
2021/12/31 10:23:40;;;;;;;;;49.00;40.00;;;;;14.56;53.35;100200.03;5050816;28;8874;-78
2021/12/31 10:26:11;;;;;;;;;41.25;37.50;;;;;14.74;53.49;100199.06;5050612;28;8897;-80
2021/12/31 10:28:52;;;;;;;;;47.75;40.00;;;;;14.37;52.35;100211.53;5050366;28;8871;-82
2021/12/31 10:31:23;;;;;;;;;46.50;37.75;;;;;14.47;53.83;100197.47;5049975;28;8863;-80
2021/12/31 10:33:52;;;;;;;;;48.25;40.50;;;;;14.53;54.05;100197.44;5045363;28;8920;-79
2021/12/31 10:36:35;;;;;;;;;47.50;39.25;;;;;14.73;53.96;100191.22;5012553;28;8908;-78
2021/12/31 10:39:17;;;;;;;;;52.50;43.25;;;;;14.52;53.40;100182.56;5012540;28;8886;-78
2021/12/31 10:41:51;;;;;;;;;47.50;41.00;;;;;14.35;54.15;100189.69;5029125;28;8854;-80
2021/12/31 10:44:20;;;;;;;;;43.25;37.50;;;;;14.41;53.96;100184.41;5048446;28;9582;-78
2021/12/31 10:47:09;;;;;;;;;56.25;45.75;;;;;14.23;53.36;100177.47;5016278;28;8921;-79
2021/12/31 10:50:09;;;;;;;;;45.25;37.50;;;;;14.47;53.65;100173.00;5031849;28;8856;-81
2021/12/31 10:52:41;;;;;;;;;47.75;40.00;;;;;14.33;53.00;100178.31;5048147;28;8860;-81
2021/12/31 10:55:18;;;;;;;;;56.25;44.50;;;;;14.58;54.93;100165.94;5031838;28;8995;-79
2021/12/31 10:57:49;;;;;;;;;47.00;38.75;;;;;14.75;54.02;100163.19;5048191;28;8951;-78
2021/12/31 11:00:20;;;;;;;;;55.50;41.75;;;;;14.89;53.42;100152.59;5031657;28;9577;-79
2021/12/31 11:02:51;;;;;;;;;52.75;43.00;;;;;14.96;52.89;100152.50;5031578;28;8860;-77
2021/12/31 11:05:21;;;;;;;;;50.75;42.75;;;;;14.93;53.65;100151.66;4999134;28;8852;-81
2021/12/31 11:07:51;;;;;;;;;52.25;43.25;;;;;14.99;52.88;100146.38;5051589;28;8848;-81
2021/12/31 11:10:35;;;;;;;;;56.00;46.00;;;;;15.07;53.46;100152.44;5051960;28;8895;-81
2021/12/31 11:13:11;;;;;;;;;52.25;43.25;;;;;15.04;53.07;100147.19;5034937;28;8864;-78
2021/12/31 11:15:42;;;;;;;;;50.00;41.00;;;;;15.12;52.93;100147.13;5052672;28;8985;-80
2021/12/31 11:18:13;;;;;;;;;41.50;37.25;;;;;15.16;52.77;100144.47;5053182;28;8852;-77
2021/12/31 11:20:42;;;;;;;;;45.50;39.75;;;;;15.17;52.38;100143.56;5051864;28;8864;-79
2021/12/31 11:23:11;;;;;;;;;52.75;42.50;;;;;15.26;52.24;100152.25;5052574;28;8879;-80
2021/12/31 11:25:53;;;;;;;;;46.00;38.75;;;;;15.41;52.76;100149.47;5028347;28;8841;-76
2021/12/31 11:28:26;;;;;;;;;47.00;37.00;;;;;15.48;53.27;100137.13;5012203;28;8852;-81
2021/12/31 11:30:57;;;;;;;;;36.75;34.75;;;;;15.29;52.48;100132.09;4995990;28;8971;-82
2021/12/31 11:33:30;;;;;;;;;39.20;34.00;;;;;15.13;51.32;100130.47;5012148;28;8884;-83